Terminal Aerodrome Forecast
Issued by NWS

Home | Current Version | Previous Version | Text Only | Print | Product List | Glossary On
Versions: 1 2 3 4 5 6 7 8 9 10 11 12 13 14 15 16 17 18 19 20 21 22 23 24 25 26 27 28 29 30
405
FTUS45 KPIH 220534
TAFSUN
TAF
KSUN 220534Z 2206/2306 31008KT P6SM BKN050
     FM221500 VRB06KT P6SM VCSH SCT020 BKN030
     FM221800 16007KT 1SM -SN BR SCT005 BKN010
     FM230300 31008KT 5SM BR VCSH SCT008 BKN015
      AMD LTD TO CLD VIS AND WIND TIL 221400=

USA.gov is the U.S. government's official web portal to all federal, state and local government web resources and services.